Impacts TAF Board INFO
FOR SITUATIONAL AWARENESS. NOT TO BE USED FOR FLIGHT PLANNING PURPOSES.
IDs:

KLGA - New York/La Guardia, NY, US

Issued at 0806 UTC 19 Nov 2017
Updated at 0849 UTC 19 Nov 2017
Potential Impact None Slight Moderate High
Time0807Z 19/09Z 19/10Z 19/11Z 19/12Z 19/13Z 19/14Z 19/15Z 19/16Z 19/17Z 19/18Z 19/19Z 19/20Z 19/21Z>>
Type OBS PRVL PRVL PRVL PRVL PRVL PRVL PRVL PRVL PRVL PRVL PRVL PRVL PRVL
VIS 10 5 5 5 6 6 6 >6 >6 >6 >6 >6 >6 >6
CIG 28 35 35 35 40 40 40 40 40 40 40 -- -- --
Cover OVC BKN BKN BKN OVC OVC OVC BKN BKN BKN BKN SCT SCT SCT
FltCat MVFR MVFR MVFR MVFR VFR VFR VFR VFR VFR VFR VFR VFR VFR VFR
WX -RA SHRA BR SHRA BR SHRA BR -SHRA BR -SHRA BR -SHRA BR -- -- -- -- -- -- --
WDir 210 210 210 210 250 250 250 280 280 280 280 280 280 280
WSpd 15 14 14 14 21 21 21 21 21 21 21 20 20 20
WGst 23 26 26 26 39 39 39 38 38 38 38 34 34 34

Raw TAF
KLGA 190806Z 1908/2006 21014G26KT 5SM SHRA BR BKN035 WS020/22050KT
  FM191200 25021G39KT 6SM -SHRA BR SCT025 OVC040
  FM191500 28021G38KT P6SM BKN040
  FM191900 28020G34KT P6SM SCT050
  FM192300 29016G27KT P6SM SCT050


Raw METAR
KLGA 190807Z 21015G23KT 10SM -RA BKN028 BKN033 OVC055 15/12 A2930 RMK AO2 LTG DSNT SE P0001 T01500117
KLGA 190751Z 20014G25KT 10SM -RA BKN033 OVC060 16/11 A2931 RMK AO2 SLP924 P0001 T01560111
KLGA 190651Z 19010KT 10SM -RA FEW075 SCT120 BKN180 14/11 A2932 RMK AO2 RAB45 SLP928 P0000 T01440106
KLGA 190551Z 19008KT 10SM FEW060 BKN190 14/10 A2936 RMK AO2 SLP942 60003 T01390100 10139 20100 56047

METAR Board
Radar Display
Forecast Discussion

FOR SITUATIONAL AWARENESS. NOT TO BE USED FOR FLIGHT PLANNING PURPOSES.